createdAt,value
2022-12-09T00:02:31.493Z,76.42
2022-12-09T00:05:34.220Z,76.62
2022-12-09T00:08:36.980Z,76.95
2022-12-09T00:11:39.736Z,76.50
2022-12-09T00:14:42.410Z,76.29
2022-12-09T00:17:46.900Z,76.13
2022-12-09T00:20:49.517Z,75.98
2022-12-09T00:23:53.318Z,76.19
2022-12-09T00:26:56.044Z,76.55
2022-12-09T00:29:58.679Z,76.38
2022-12-09T00:33:03.236Z,76.37
2022-12-09T00:36:07.380Z,76.80
2022-12-09T00:39:12.137Z,77.02
2022-12-09T00:42:14.946Z,76.46
2022-12-09T00:45:17.681Z,76.91
2022-12-09T00:48:21.774Z,76.97
2022-12-09T00:51:26.562Z,76.53
2022-12-09T00:54:29.564Z,76.07
2022-12-09T00:57:32.872Z,75.97
2022-12-09T01:00:35.948Z,76.19
2022-12-09T01:03:40.739Z,76.37
2022-12-09T01:06:44.106Z,76.90
2022-12-09T01:09:47.143Z,76.95
2022-12-09T01:12:49.914Z,76.40
2022-12-09T01:15:52.728Z,76.26
2022-12-09T01:18:59.559Z,76.76
2022-12-09T01:22:02.647Z,76.58
2022-12-09T01:25:05.989Z,76.66
2022-12-09T01:28:08.665Z,76.77
2022-12-09T01:31:13.885Z,76.86
2022-12-09T01:34:18.194Z,76.97
2022-12-09T01:37:21.170Z,76.87
2022-12-09T01:40:24.302Z,76.84
2022-12-09T01:43:27.389Z,76.46
2022-12-09T01:46:30.465Z,76.75
2022-12-09T01:49:38.535Z,76.21
2022-12-09T01:52:41.494Z,76.09
2022-12-09T01:55:45.173Z,76.26
2022-12-09T01:58:48.420Z,77.11
2022-12-09T02:01:52.604Z,76.90
2022-12-09T02:04:56.784Z,77.33
2022-12-09T02:08:00.086Z,76.91
2022-12-09T02:11:09.431Z,76.85
2022-12-09T02:14:17.902Z,77.03
2022-12-09T02:17:28.084Z,77.68
2022-12-09T02:20:36.668Z,77.99
2022-12-09T02:23:41.609Z,77.94
2022-12-09T02:26:46.825Z,77.90
2022-12-09T02:29:58.595Z,77.82
2022-12-09T02:33:15.535Z,78.27
2022-12-09T02:36:21.547Z,78.57
2022-12-09T02:39:27.818Z,78.07
2022-12-09T02:42:33.587Z,78.21
2022-12-09T02:45:37.122Z,78.08
2022-12-09T02:48:42.474Z,78.62
2022-12-09T02:51:46.860Z,78.41
2022-12-09T02:54:49.600Z,78.07
2022-12-09T02:57:56.901Z,79.08
2022-12-09T03:00:59.894Z,78.70
2022-12-09T03:04:03.890Z,78.63
2022-12-09T03:07:14.817Z,79.22
2022-12-09T03:10:19.703Z,79.14
2022-12-09T03:13:32.242Z,78.59
2022-12-09T03:16:37.702Z,78.56
2022-12-09T03:19:44.809Z,79.23
2022-12-09T03:22:49.824Z,79.86
2022-12-09T03:25:54.883Z,78.95
2022-12-09T03:28:59.834Z,79.27
2022-12-09T03:32:03.018Z,78.92
2022-12-09T03:35:09.553Z,78.82
2022-12-09T03:38:16.621Z,78.49
2022-12-09T03:41:23.609Z,79.11
2022-12-09T03:44:31.856Z,79.05
2022-12-09T03:47:35.608Z,78.87
2022-12-09T03:50:41.383Z,78.91
2022-12-09T03:53:49.793Z,79.19
2022-12-09T03:56:55.489Z,79.76
2022-12-09T04:00:00.967Z,79.36
2022-12-09T04:03:04.247Z,79.01
2022-12-09T04:06:07.647Z,79.56
2022-12-09T04:09:13.899Z,79.41
2022-12-09T04:12:17.088Z,79.44
2022-12-09T04:15:19.988Z,79.14
2022-12-09T04:18:23.625Z,78.84
2022-12-09T04:21:27.529Z,79.09
2022-12-09T04:24:31.730Z,78.74
2022-12-09T04:27:35.016Z,78.40
2022-12-09T04:30:37.718Z,78.60
2022-12-09T04:33:41.252Z,78.60
2022-12-09T04:36:43.897Z,78.38
2022-12-09T04:39:48.175Z,78.35
2022-12-09T04:42:50.786Z,78.80
2022-12-09T04:45:53.744Z,78.74
2022-12-09T04:48:56.952Z,79.23
2022-12-09T04:52:00.156Z,79.66
2022-12-09T04:55:04.677Z,79.46
2022-12-09T04:58:07.551Z,79.67
2022-12-09T05:01:15.630Z,78.93
2022-12-09T05:04:19.951Z,79.38
2022-12-09T05:07:25.352Z,79.13
2022-12-09T05:10:29.556Z,78.60
2022-12-09T05:13:32.748Z,78.97
2022-12-09T05:16:35.747Z,78.94
2022-12-09T05:19:38.856Z,79.08
2022-12-09T05:22:41.779Z,78.53
2022-12-09T05:25:46.024Z,78.62
2022-12-09T05:28:48.879Z,78.58
2022-12-09T05:31:52.611Z,78.61
2022-12-09T05:34:55.453Z,78.29
2022-12-09T05:37:58.411Z,78.42
2022-12-09T05:41:02.808Z,78.26
2022-12-09T05:44:05.774Z,78.26
2022-12-09T05:47:08.676Z,78.47
2022-12-09T05:50:12.320Z,78.05
2022-12-09T05:53:15.641Z,78.53
2022-12-09T05:56:21.395Z,78.50
2022-12-09T05:59:24.316Z,78.86
2022-12-09T06:02:27.118Z,78.89
2022-12-09T06:05:30.121Z,78.31
2022-12-09T06:08:33.292Z,78.09
2022-12-09T06:11:37.671Z,77.75
2022-12-09T06:14:40.566Z,77.40
2022-12-09T06:17:43.420Z,77.13
2022-12-09T06:20:46.179Z,77.22
2022-12-09T06:23:49.794Z,77.12
2022-12-09T06:26:55.703Z,77.20
2022-12-09T06:29:58.939Z,77.50
2022-12-09T06:33:02.162Z,77.49
2022-12-09T06:36:06.587Z,77.48
2022-12-09T06:39:11.067Z,77.36
2022-12-09T06:42:15.640Z,77.14
2022-12-09T06:45:18.672Z,77.60
2022-12-09T06:48:21.664Z,77.51
2022-12-09T06:51:26.774Z,77.52
2022-12-09T06:54:30.372Z,77.15
2022-12-09T06:57:35.713Z,77.16
2022-12-09T07:00:40.437Z,77.19
2022-12-09T07:03:46.748Z,77.33
2022-12-09T07:06:49.840Z,77.28
2022-12-09T07:09:53.435Z,76.65
2022-12-09T07:12:57.583Z,76.04
2022-12-09T07:16:00.587Z,75.85
2022-12-09T07:19:04.236Z,75.56
2022-12-09T07:22:07.492Z,74.84
2022-12-09T07:25:11.196Z,74.29
2022-12-09T07:28:15.685Z,73.80
2022-12-09T07:31:21.280Z,73.63
2022-12-09T07:34:24.275Z,72.63
2022-12-09T07:37:27.650Z,72.54
2022-12-09T07:40:30.944Z,72.11
2022-12-09T07:43:36.100Z,72.17
2022-12-09T07:46:39.785Z,71.26
2022-12-09T07:49:42.918Z,70.66
2022-12-09T07:52:45.798Z,70.28
2022-12-09T07:55:49.004Z,69.91
2022-12-09T07:58:54.642Z,68.95
2022-12-09T08:02:04.194Z,68.32
2022-12-09T08:05:10.543Z,68.11
2022-12-09T08:08:13.949Z,67.27
2022-12-09T08:11:19.804Z,66.39
2022-12-09T08:14:23.986Z,66.24
2022-12-09T08:17:27.406Z,65.40
2022-12-09T08:20:30.966Z,65.22
2022-12-09T08:23:34.932Z,65.07
2022-12-09T08:26:39.437Z,64.92
2022-12-09T08:29:44.448Z,64.75
2022-12-09T08:32:48.514Z,64.26
2022-12-09T08:35:51.774Z,64.54
2022-12-09T08:38:55.417Z,63.98
2022-12-09T08:41:58.260Z,63.63
2022-12-09T08:45:03.256Z,63.58
2022-12-09T08:48:07.048Z,63.69
2022-12-09T08:51:11.383Z,62.96
2022-12-09T08:54:14.636Z,61.76
2022-12-09T08:57:17.938Z,61.48
2022-12-09T09:00:23.257Z,60.89
2022-12-09T09:03:27.320Z,61.59
2022-12-09T09:06:30.272Z,60.54
2022-12-09T09:09:33.447Z,60.61
2022-12-09T09:12:42.370Z,60.81
2022-12-09T09:15:48.078Z,61.38
2022-12-09T09:18:52.722Z,61.66
2022-12-09T09:21:56.234Z,60.80
2022-12-09T09:24:59.549Z,59.85
2022-12-09T09:28:02.933Z,60.15
2022-12-09T09:31:09.410Z,59.92
2022-12-09T09:34:13.195Z,59.90
2022-12-09T09:37:15.986Z,60.36
2022-12-09T09:40:19.774Z,59.63
2022-12-09T09:43:25.312Z,59.47
2022-12-09T09:46:36.368Z,59.22
2022-12-09T09:49:46.260Z,58.87
2022-12-09T09:52:51.279Z,58.54
2022-12-09T09:55:58.288Z,58.32
2022-12-09T09:59:10.432Z,57.95
2022-12-09T10:02:30.844Z,58.24
2022-12-09T10:05:36.129Z,58.91
2022-12-09T10:08:43.616Z,59.21
2022-12-09T10:11:56.557Z,58.67
2022-12-09T10:15:03.540Z,59.24
2022-12-09T10:18:12.987Z,59.50
2022-12-09T10:21:18.758Z,58.97
2022-12-09T10:24:25.031Z,59.02
2022-12-09T10:27:32.146Z,59.07
2022-12-09T10:30:43.685Z,58.48
2022-12-09T10:33:50.589Z,59.28
2022-12-09T10:36:53.836Z,58.90
2022-12-09T10:40:03.444Z,58.37
2022-12-09T10:43:38.864Z,58.75
2022-12-09T10:46:42.696Z,58.74
2022-12-09T10:49:47.524Z,58.60
2022-12-09T10:52:50.772Z,59.08
2022-12-09T10:55:54.923Z,59.40
2022-12-09T10:59:10.800Z,59.98
2022-12-09T11:02:21.084Z,60.44
2022-12-09T11:05:29.071Z,60.26
2022-12-09T11:08:33.268Z,60.69
2022-12-09T11:11:41.389Z,61.24
2022-12-09T11:14:51.752Z,60.89
2022-12-09T11:17:59.856Z,59.93
2022-12-09T11:21:06.261Z,59.26
2022-12-09T11:24:21.332Z,59.25
2022-12-09T11:27:28.079Z,59.07
2022-12-09T11:30:33.348Z,58.60
2022-12-09T11:33:37.585Z,58.39
2022-12-09T11:36:44.997Z,59.71
2022-12-09T11:39:50.651Z,58.35
2022-12-09T11:42:54.652Z,58.20
2022-12-09T11:45:57.299Z,57.70
2022-12-09T11:49:03.784Z,58.36
2022-12-09T11:52:24.058Z,57.66
2022-12-09T11:55:27.846Z,56.50
2022-12-09T11:58:34.946Z,57.38
2022-12-09T12:01:45.920Z,58.29
2022-12-09T12:04:56.861Z,58.52
2022-12-09T12:11:40.882Z,59.65
2022-12-09T12:14:45.268Z,59.85
2022-12-09T12:17:50.927Z,59.80
2022-12-09T12:21:15.872Z,59.95
2022-12-09T12:24:46.826Z,59.40
2022-12-09T12:28:01.436Z,59.48
2022-12-09T12:31:13.243Z,59.89
2022-12-09T12:34:27.209Z,60.63
2022-12-09T12:37:41.335Z,60.58
2022-12-09T12:40:48.226Z,60.51
2022-12-09T12:44:18.887Z,60.27
2022-12-09T12:47:24.978Z,60.57
2022-12-09T12:50:44.582Z,61.20
2022-12-09T12:53:52.475Z,61.13
2022-12-09T12:57:09.415Z,61.48
2022-12-09T13:00:16.269Z,62.16
2022-12-09T13:03:24.035Z,62.83
2022-12-09T13:06:40.853Z,62.01
2022-12-09T13:09:46.274Z,61.80
2022-12-09T13:12:56.783Z,62.58
2022-12-09T13:16:02.194Z,63.78
2022-12-09T13:19:13.401Z,63.65
2022-12-09T13:22:21.859Z,63.28
2022-12-09T13:25:28.407Z,63.39
2022-12-09T13:28:40.349Z,64.12
2022-12-09T13:31:49.431Z,64.86
2022-12-09T13:34:55.127Z,65.07
2022-12-09T13:38:01.816Z,64.98
2022-12-09T13:41:59.039Z,64.89
2022-12-09T13:45:07.624Z,65.03
2022-12-09T13:48:38.615Z,65.06
2022-12-09T13:51:45.927Z,64.81
2022-12-09T13:54:49.408Z,64.70
2022-12-09T13:57:55.285Z,64.99
2022-12-09T14:01:06.043Z,66.63
2022-12-09T14:04:15.056Z,67.09
2022-12-09T14:07:24.155Z,68.04
2022-12-09T14:10:38.383Z,68.54
2022-12-09T14:13:41.120Z,68.72
2022-12-09T14:16:45.511Z,69.46
2022-12-09T14:19:56.499Z,69.64
2022-12-09T14:23:13.516Z,71.01
2022-12-09T14:26:35.299Z,71.66
2022-12-09T14:29:54.351Z,72.04
2022-12-09T14:32:58.802Z,72.43
2022-12-09T14:36:05.307Z,72.41
2022-12-09T14:39:24.341Z,72.66
2022-12-09T14:42:36.284Z,72.96
2022-12-09T14:45:49.384Z,73.39
2022-12-09T14:48:57.192Z,73.66
2022-12-09T14:52:01.710Z,73.98
2022-12-09T14:55:08.401Z,73.79
2022-12-09T14:58:19.629Z,74.62
2022-12-09T15:01:22.468Z,74.96
2022-12-09T15:04:31.890Z,75.59
2022-12-09T15:07:35.787Z,75.61
2022-12-09T15:10:39.499Z,75.14
2022-12-09T15:13:44.303Z,75.85
2022-12-09T15:16:50.578Z,76.31
2022-12-09T15:20:02.313Z,76.12
2022-12-09T15:23:07.315Z,76.78
2022-12-09T15:26:20.466Z,77.31
2022-12-09T15:29:23.880Z,77.45
2022-12-09T15:32:29.520Z,77.13
2022-12-09T15:35:34.849Z,77.71
2022-12-09T15:38:42.336Z,77.99
2022-12-09T15:42:12.227Z,77.83
2022-12-09T15:45:17.279Z,77.58
2022-12-09T15:48:22.068Z,77.31
2022-12-09T15:51:27.146Z,77.51
2022-12-09T15:54:32.209Z,77.75
2022-12-09T15:57:36.264Z,77.53
2022-12-09T16:00:40.560Z,76.93
2022-12-09T16:03:43.358Z,76.64
2022-12-09T16:06:47.877Z,76.93
2022-12-09T16:10:07.962Z,76.90
2022-12-09T16:13:14.607Z,76.64
2022-12-09T16:16:25.655Z,76.99
2022-12-09T16:19:34.956Z,77.73
2022-12-09T16:22:39.588Z,77.18
2022-12-09T16:25:45.829Z,77.49
2022-12-09T16:28:55.678Z,77.09
2022-12-09T16:32:21.335Z,77.04
2022-12-09T16:35:27.115Z,77.09
2022-12-09T16:38:32.317Z,77.47
2022-12-09T16:41:56.700Z,77.85
2022-12-09T16:45:14.146Z,77.44
2022-12-09T16:48:17.844Z,77.10
2022-12-09T16:51:24.554Z,77.48
2022-12-09T16:54:28.674Z,77.84
2022-12-09T16:57:31.592Z,77.26
2022-12-09T17:00:34.159Z,77.08
2022-12-09T17:03:39.443Z,76.77
2022-12-09T17:06:42.396Z,76.77
2022-12-09T17:09:46.557Z,76.41
2022-12-09T17:12:49.986Z,76.33
2022-12-09T17:15:58.109Z,76.54
2022-12-09T17:19:01.199Z,76.86
2022-12-09T17:22:05.637Z,77.31
2022-12-09T17:25:10.723Z,77.11
2022-12-09T17:28:13.367Z,77.14
2022-12-09T17:31:18.355Z,77.31
2022-12-09T17:34:21.555Z,76.96
2022-12-09T17:37:24.384Z,77.07
2022-12-09T17:40:28.498Z,76.79
2022-12-09T17:43:31.585Z,76.57
2022-12-09T17:46:34.912Z,76.93
2022-12-09T17:49:38.093Z,76.66
2022-12-09T17:52:42.428Z,76.67
2022-12-09T17:55:46.371Z,76.65
2022-12-09T17:58:49.692Z,76.22
2022-12-09T18:01:52.314Z,76.29
2022-12-09T18:04:54.977Z,76.21
2022-12-09T18:07:57.778Z,76.65
2022-12-09T18:11:05.474Z,76.52
2022-12-09T18:14:09.885Z,76.70
2022-12-09T18:17:13.458Z,76.74
2022-12-09T18:20:16.443Z,76.50
2022-12-09T18:23:29.295Z,76.47
2022-12-09T18:26:38.303Z,76.51
2022-12-09T18:29:44.713Z,76.41
2022-12-09T18:32:47.405Z,76.49
2022-12-09T18:35:50.128Z,76.25
2022-12-09T18:38:53.863Z,75.98
2022-12-09T18:41:58.034Z,75.61
2022-12-09T18:45:00.663Z,75.75
2022-12-09T18:48:03.679Z,75.32
2022-12-09T18:51:08.646Z,75.36
2022-12-09T18:54:16.272Z,75.08
2022-12-09T18:57:20.220Z,75.27
2022-12-09T19:00:23.165Z,74.93
2022-12-09T19:03:25.762Z,74.61
2022-12-09T19:06:29.878Z,74.90
2022-12-09T19:09:34.947Z,75.25
2022-12-09T19:12:46.922Z,75.29
2022-12-09T19:15:50.115Z,75.44
2022-12-09T19:18:53.593Z,75.02
2022-12-09T19:21:56.353Z,75.02
2022-12-09T19:24:59.108Z,74.90
2022-12-09T19:28:03.156Z,74.80
2022-12-09T19:31:14.175Z,74.04
2022-12-09T19:34:18.498Z,74.35
2022-12-09T19:37:21.166Z,74.37
2022-12-09T19:40:23.978Z,74.62
2022-12-09T19:43:28.097Z,75.04
2022-12-09T19:46:30.849Z,75.35
2022-12-09T19:49:33.592Z,75.51
2022-12-09T19:52:36.869Z,75.59
2022-12-09T19:55:39.929Z,75.62
2022-12-09T19:58:45.057Z,75.58
2022-12-09T20:01:47.903Z,75.72
2022-12-09T20:04:51.381Z,75.78
2022-12-09T20:07:54.724Z,75.65
2022-12-09T20:10:57.357Z,75.30
2022-12-09T20:14:02.967Z,75.53
2022-12-09T20:17:05.796Z,75.19
2022-12-09T20:20:10.694Z,75.40
2022-12-09T20:23:13.688Z,75.28
2022-12-09T20:26:18.980Z,75.32
2022-12-09T20:29:23.166Z,75.82
2022-12-09T20:32:26.043Z,75.16
2022-12-09T20:35:28.729Z,75.56
2022-12-09T20:38:31.897Z,75.50
2022-12-09T20:41:34.840Z,75.40
2022-12-09T20:44:38.971Z,75.42
2022-12-09T20:47:42.170Z,75.02
2022-12-09T20:50:45.037Z,74.18
2022-12-09T20:53:48.754Z,74.49
2022-12-09T20:56:51.467Z,74.83
2022-12-09T20:59:55.580Z,74.74
2022-12-09T21:02:58.333Z,74.70
2022-12-09T21:06:00.963Z,74.91
2022-12-09T21:09:05.284Z,74.57
2022-12-09T21:12:08.130Z,74.50
2022-12-09T21:15:12.823Z,74.61
2022-12-09T21:18:15.557Z,74.60
2022-12-09T21:21:19.103Z,74.28
2022-12-09T21:24:24.418Z,74.33
2022-12-09T21:27:27.529Z,74.05
2022-12-09T21:30:31.500Z,74.27
2022-12-09T21:33:34.653Z,74.55
2022-12-09T21:36:39.612Z,73.98
2022-12-09T21:39:42.476Z,73.96
2022-12-09T21:42:45.785Z,74.27
2022-12-09T21:45:50.662Z,74.27
2022-12-09T21:48:59.945Z,74.12
2022-12-09T21:52:07.273Z,74.36
2022-12-09T21:55:11.859Z,74.15
2022-12-09T21:58:15.072Z,74.35
2022-12-09T22:01:21.504Z,74.07
2022-12-09T22:04:24.119Z,74.15
2022-12-09T22:07:26.729Z,73.96
2022-12-09T22:10:30.370Z,73.72
2022-12-09T22:13:39.010Z,73.84
2022-12-09T22:16:45.765Z,74.02
2022-12-09T22:20:06.281Z,74.17
2022-12-09T22:23:12.777Z,74.00
2022-12-09T22:26:16.720Z,74.22
2022-12-09T22:29:19.527Z,74.13
2022-12-09T22:32:23.682Z,74.12
2022-12-09T22:35:26.688Z,73.80
2022-12-09T22:38:29.350Z,73.86
2022-12-09T22:41:33.912Z,73.76
2022-12-09T22:44:36.506Z,73.83
2022-12-09T22:47:40.537Z,74.55
2022-12-09T22:50:43.176Z,74.15
2022-12-09T22:53:46.403Z,74.30
2022-12-09T22:56:49.126Z,74.06
2022-12-09T22:59:51.754Z,73.84
2022-12-09T23:02:56.041Z,74.11
2022-12-09T23:06:02.316Z,73.68
2022-12-09T23:09:05.822Z,73.63
2022-12-09T23:12:08.989Z,73.83
2022-12-09T23:15:12.373Z,73.71
2022-12-09T23:18:16.415Z,73.81
2022-12-09T23:21:22.483Z,74.05
2022-12-09T23:24:25.279Z,74.19
2022-12-09T23:27:28.162Z,74.01
2022-12-09T23:30:30.977Z,74.16
2022-12-09T23:33:36.314Z,74.23
2022-12-09T23:36:41.227Z,74.10
2022-12-09T23:39:44.164Z,74.27
2022-12-09T23:42:46.781Z,74.30
2022-12-09T23:45:49.404Z,74.16
2022-12-09T23:48:54.698Z,74.41
2022-12-09T23:51:57.345Z,74.56
2022-12-09T23:55:04.354Z,74.32
2022-12-09T23:58:07.266Z,74.33
